createdAt,value
2018-10-17T00:00:50.300Z,8.41
2018-10-17T00:02:50.468Z,8.34
2018-10-17T00:04:50.125Z,8.29
2018-10-17T00:06:50.461Z,8.23
2018-10-17T00:08:50.627Z,8.20
2018-10-17T00:10:49.921Z,8.16
2018-10-17T00:12:50.102Z,8.12
2018-10-17T00:14:50.281Z,8.13
2018-10-17T00:16:50.705Z,8.09
2018-10-17T00:18:49.895Z,8.05
2018-10-17T00:20:50.174Z,8.01
2018-10-17T00:22:50.321Z,7.99
2018-10-17T00:24:50.552Z,7.94
2018-10-17T00:26:50.238Z,7.92
2018-10-17T00:28:50.420Z,7.93
2018-10-17T00:30:50.547Z,7.90
2018-10-17T00:32:50.926Z,7.90
2018-10-17T00:34:50.306Z,7.82
2018-10-17T00:36:50.744Z,7.80
2018-10-17T00:38:50.119Z,7.76
2018-10-17T00:40:50.260Z,7.72
2018-10-17T00:42:50.384Z,7.69
2018-10-17T00:44:50.485Z,7.66
2018-10-17T00:46:49.873Z,7.59
2018-10-17T00:48:50.035Z,7.56
2018-10-17T00:50:50.177Z,7.52
2018-10-17T00:52:50.289Z,7.44
2018-10-17T00:54:50.446Z,7.42
2018-10-17T00:56:50.801Z,7.38
2018-10-17T00:58:50.064Z,7.36
2018-10-17T01:00:50.189Z,7.33
2018-10-17T01:02:50.305Z,7.34
2018-10-17T01:04:50.949Z,7.33
2018-10-17T01:06:50.413Z,7.34
2018-10-17T01:08:50.675Z,7.33
2018-10-17T01:10:50.829Z,7.33
2018-10-17T01:12:50.428Z,7.24
2018-10-17T01:14:50.650Z,7.32
2018-10-17T01:16:50.142Z,7.37
2018-10-17T01:18:50.379Z,7.43
2018-10-17T01:20:50.603Z,7.43
2018-10-17T01:22:50.938Z,7.34
2018-10-17T01:24:50.165Z,7.30
2018-10-17T01:26:50.595Z,7.29
2018-10-17T01:28:49.995Z,7.29
2018-10-17T01:30:50.195Z,7.29
2018-10-17T01:32:50.423Z,7.27
2018-10-17T01:34:50.869Z,7.23
2018-10-17T01:36:50.448Z,7.21
2018-10-17T01:38:50.616Z,7.20
2018-10-17T01:40:50.885Z,7.20
2018-10-17T01:42:50.113Z,7.17
2018-10-17T01:44:50.283Z,7.14
2018-10-17T01:46:50.770Z,7.12
2018-10-17T01:48:50.038Z,7.12
2018-10-17T01:50:50.176Z,7.14
2018-10-17T01:52:50.335Z,7.13
2018-10-17T01:54:50.473Z,7.10
2018-10-17T01:56:50.725Z,7.04
2018-10-17T01:58:49.897Z,7.00
2018-10-17T02:00:50.311Z,6.95
2018-10-17T02:02:50.457Z,6.94
2018-10-17T02:04:49.885Z,6.89
2018-10-17T02:06:50.421Z,6.86
2018-10-17T02:08:50.708Z,6.82
2018-10-17T02:10:49.936Z,6.79
2018-10-17T02:12:50.198Z,6.75
2018-10-17T02:14:50.429Z,6.72
2018-10-17T02:16:50.769Z,6.72
2018-10-17T02:18:49.942Z,6.64
2018-10-17T02:20:50.065Z,6.65
2018-10-17T02:22:50.216Z,6.66
2018-10-17T02:24:50.380Z,6.63
2018-10-17T02:26:50.650Z,6.62
2018-10-17T02:28:49.963Z,6.57
2018-10-17T02:30:50.240Z,6.56
2018-10-17T02:32:50.517Z,6.53
2018-10-17T02:34:50.338Z,6.52
2018-10-17T02:36:50.732Z,6.51
2018-10-17T02:38:49.964Z,6.46
2018-10-17T02:40:50.316Z,6.46
2018-10-17T02:42:50.624Z,6.38
2018-10-17T02:44:49.914Z,6.37
2018-10-17T02:46:50.319Z,6.30
2018-10-17T02:48:50.530Z,6.29
2018-10-17T02:50:50.746Z,6.27
2018-10-17T02:52:50.014Z,6.23
2018-10-17T02:54:50.170Z,6.19
2018-10-17T02:56:50.523Z,6.18
2018-10-17T02:58:50.659Z,6.17
2018-10-17T03:00:49.885Z,6.13
2018-10-17T03:02:50.094Z,6.09
2018-10-17T03:04:50.580Z,6.08
2018-10-17T03:06:50.151Z,6.10
2018-10-17T03:08:50.351Z,6.10
2018-10-17T03:10:50.555Z,6.10
2018-10-17T03:12:50.019Z,6.07
2018-10-17T03:14:50.211Z,6.03
2018-10-17T03:16:50.571Z,6.02
2018-10-17T03:18:50.973Z,5.99
2018-10-17T03:20:50.177Z,5.97
2018-10-17T03:22:50.343Z,5.93
2018-10-17T03:24:50.525Z,5.92
2018-10-17T03:26:50.037Z,5.94
2018-10-17T03:28:50.264Z,5.96
2018-10-17T03:30:50.625Z,5.95
2018-10-17T03:32:49.895Z,5.94
2018-10-17T03:34:50.560Z,5.90
2018-10-17T03:36:50.998Z,5.88
2018-10-17T03:38:50.238Z,5.86
2018-10-17T03:40:50.439Z,5.78
2018-10-17T03:42:50.715Z,5.73
2018-10-17T03:44:50.080Z,5.70
2018-10-17T03:46:50.361Z,5.67
2018-10-17T03:48:50.594Z,5.65
2018-10-17T03:50:50.769Z,5.65
2018-10-17T03:52:50.097Z,5.65
2018-10-17T03:54:50.334Z,5.63
2018-10-17T03:56:50.774Z,5.63
2018-10-17T03:58:49.914Z,5.62
2018-10-17T04:00:50.254Z,5.61
2018-10-17T04:02:50.733Z,5.58
2018-10-17T04:04:50.455Z,5.59
2018-10-17T04:06:50.824Z,5.58
2018-10-17T04:08:50.095Z,5.55
2018-10-17T04:10:50.292Z,5.55
2018-10-17T04:12:50.552Z,5.51
2018-10-17T04:14:49.911Z,5.48
2018-10-17T04:16:50.195Z,5.48
2018-10-17T04:18:50.366Z,5.47
2018-10-17T04:20:50.772Z,5.47
2018-10-17T04:22:50.028Z,5.44
2018-10-17T04:24:50.252Z,5.43
2018-10-17T04:26:50.036Z,5.41
2018-10-17T04:28:50.260Z,5.36
2018-10-17T04:30:50.543Z,5.38
2018-10-17T04:32:49.973Z,5.40
2018-10-17T04:34:50.446Z,5.40
2018-10-17T04:36:50.832Z,5.36
2018-10-17T04:38:50.154Z,5.33
2018-10-17T04:40:50.472Z,5.36
2018-10-17T04:42:50.673Z,5.40
2018-10-17T04:44:50.047Z,5.39
2018-10-17T04:46:50.443Z,5.38
2018-10-17T04:48:50.531Z,5.32
2018-10-17T04:50:50.741Z,5.33
2018-10-17T04:52:49.956Z,5.37
2018-10-17T04:54:50.155Z,5.37
2018-10-17T04:56:50.557Z,5.35
2018-10-17T04:58:50.971Z,5.31
2018-10-17T05:00:50.161Z,5.31
2018-10-17T05:02:50.297Z,5.33
2018-10-17T05:04:50.659Z,5.32
2018-10-17T05:06:50.873Z,5.31
2018-10-17T05:08:50.202Z,5.31
2018-10-17T05:10:50.361Z,5.28
2018-10-17T05:12:50.595Z,5.26
2018-10-17T05:14:50.748Z,5.25
2018-10-17T05:16:50.121Z,5.23
2018-10-17T05:18:50.214Z,5.23
2018-10-17T05:20:50.357Z,5.20
2018-10-17T05:22:50.540Z,5.17
2018-10-17T05:24:50.625Z,5.16
2018-10-17T05:26:50.356Z,5.14
2018-10-17T05:28:50.435Z,5.14
2018-10-17T05:30:50.613Z,5.13
2018-10-17T05:32:50.785Z,5.09
2018-10-17T05:34:50.524Z,5.08
2018-10-17T05:36:50.498Z,5.08
2018-10-17T05:38:50.679Z,5.06
2018-10-17T05:40:49.909Z,5.04
2018-10-17T05:42:50.114Z,5.06
2018-10-17T05:44:50.301Z,5.09
2018-10-17T05:46:50.732Z,5.12
2018-10-17T05:48:49.995Z,5.11
2018-10-17T05:50:50.058Z,5.11
2018-10-17T05:52:50.250Z,5.12
2018-10-17T05:54:50.545Z,5.14
2018-10-17T05:56:49.894Z,5.16
2018-10-17T05:58:50.041Z,5.15
2018-10-17T06:00:50.270Z,5.20
2018-10-17T06:02:50.480Z,5.22
2018-10-17T06:04:50.056Z,5.28
2018-10-17T06:06:50.448Z,5.28
2018-10-17T06:08:50.683Z,5.29
2018-10-17T06:10:49.902Z,5.33
2018-10-17T06:12:50.162Z,5.34
2018-10-17T06:14:50.276Z,5.36
2018-10-17T06:16:51.202Z,5.42
2018-10-17T06:18:50.513Z,5.49
2018-10-17T06:20:50.669Z,5.55
2018-10-17T06:22:50.005Z,5.60
2018-10-17T06:24:50.140Z,5.67
2018-10-17T06:26:50.493Z,5.71
2018-10-17T06:28:50.708Z,5.78
2018-10-17T06:30:50.755Z,5.80
2018-10-17T06:32:50.332Z,5.83
2018-10-17T06:34:51.662Z,6.04
2018-10-17T06:36:50.212Z,6.17
2018-10-17T06:38:50.347Z,6.31
2018-10-17T06:40:50.570Z,6.36
2018-10-17T06:42:49.896Z,6.44
2018-10-17T06:44:50.179Z,6.47
2018-10-17T06:46:50.438Z,6.56
2018-10-17T06:48:50.740Z,6.67
2018-10-17T06:50:49.961Z,6.72
2018-10-17T06:52:50.260Z,6.86
2018-10-17T06:54:50.416Z,6.97
2018-10-17T06:56:50.799Z,7.00
2018-10-17T06:58:50.067Z,7.13
2018-10-17T07:00:50.206Z,7.30
2018-10-17T07:02:50.480Z,7.36
2018-10-17T07:04:50.198Z,7.51
2018-10-17T07:06:50.476Z,7.57
2018-10-17T07:08:50.601Z,7.63
2018-10-17T07:10:50.721Z,7.74
2018-10-17T07:12:50.117Z,7.79
2018-10-17T07:14:50.256Z,7.93
2018-10-17T07:16:50.640Z,8.08
2018-10-17T07:18:50.822Z,8.17
2018-10-17T07:20:49.984Z,8.3
2018-10-17T07:22:50.171Z,8.37
2018-10-17T07:24:50.351Z,8.5
2018-10-17T07:26:50.689Z,8.5
2018-10-17T07:28:51.640Z,8.6
2018-10-17T07:30:50.138Z,8.7
2018-10-17T07:32:50.318Z,8.8
2018-10-17T07:34:50.762Z,8.8
2018-10-17T07:36:50.024Z,8.8
2018-10-17T07:38:50.205Z,8.9
2018-10-17T07:40:50.335Z,9.0
2018-10-17T07:42:50.596Z,9.1
2018-10-17T07:44:50.827Z,9.2
2018-10-17T07:46:50.148Z,9.2
2018-10-17T07:48:50.390Z,9.3
2018-10-17T07:50:50.530Z,9.5
2018-10-17T07:52:51.295Z,9.6
2018-10-17T07:54:50.503Z,9.6
2018-10-17T07:56:50.812Z,9.6
2018-10-17T07:58:50.141Z,9.7
2018-10-17T08:00:50.287Z,9.8
2018-10-17T08:02:50.573Z,10.0
2018-10-17T08:04:50.307Z,10.0
2018-10-17T08:06:50.621Z,10.0
2018-10-17T08:08:50.710Z,10.2
2018-10-17T08:10:49.884Z,10.4
2018-10-17T08:12:50.135Z,10.4
2018-10-17T08:14:50.288Z,10.4
2018-10-17T08:16:50.560Z,10.6
2018-10-17T08:18:50.673Z,10.6
2018-10-17T08:20:49.895Z,10.7
2018-10-17T08:22:50.050Z,10.8
2018-10-17T08:24:50.265Z,10.8
2018-10-17T08:26:50.577Z,11.0
2018-10-17T08:28:50.719Z,11.0
2018-10-17T08:30:49.943Z,11.1
2018-10-17T08:32:50.127Z,11.1
2018-10-17T08:34:50.670Z,11.3
2018-10-17T08:36:52.742Z,11.4
2018-10-17T08:38:50.523Z,11.4
2018-10-17T08:40:51.007Z,11.5
2018-10-17T08:42:50.276Z,11.5
2018-10-17T08:44:50.722Z,11.6
2018-10-17T08:46:50.216Z,11.8
2018-10-17T08:48:50.405Z,11.8
2018-10-17T08:50:51.414Z,12.0
2018-10-17T08:52:49.877Z,12.0
2018-10-17T08:54:50.177Z,12.1
2018-10-17T08:56:50.653Z,12.2
2018-10-17T08:58:50.860Z,12.3
2018-10-17T09:00:49.998Z,12.3
2018-10-17T09:02:50.115Z,12.4
2018-10-17T09:04:50.419Z,12.4
2018-10-17T09:06:50.849Z,12.5
2018-10-17T09:08:50.022Z,12.6
2018-10-17T09:10:50.121Z,12.8
2018-10-17T09:12:50.243Z,12.8
2018-10-17T09:14:50.350Z,12.8
2018-10-17T09:16:51.008Z,12.9
2018-10-17T09:18:50.132Z,13.0
2018-10-17T09:20:53.472Z,13.1
2018-10-17T09:22:49.994Z,13.1
2018-10-17T09:24:50.181Z,13.1
2018-10-17T09:26:50.558Z,13.3
2018-10-17T09:28:50.721Z,13.4
2018-10-17T09:30:50.000Z,13.4
2018-10-17T09:32:50.307Z,13.5
2018-10-17T09:34:50.202Z,13.6
2018-10-17T09:36:50.536Z,13.6
2018-10-17T09:38:50.808Z,13.8
2018-10-17T09:40:50.008Z,13.8
2018-10-17T09:42:50.398Z,13.9
2018-10-17T09:44:50.787Z,14.0
2018-10-17T09:46:50.157Z,14.1
2018-10-17T09:48:50.339Z,14.1
2018-10-17T09:50:50.525Z,14.2
2018-10-17T09:52:50.730Z,14.3
2018-10-17T09:54:49.946Z,14.4
2018-10-17T09:56:50.381Z,14.5
2018-10-17T09:58:50.597Z,14.6
2018-10-17T10:00:50.795Z,14.6
2018-10-17T10:02:49.994Z,14.7
2018-10-17T10:04:50.377Z,14.8
2018-10-17T10:06:50.729Z,14.9
2018-10-17T10:08:49.952Z,14.9
2018-10-17T10:10:50.245Z,15.0
2018-10-17T10:12:50.449Z,15.1
2018-10-17T10:14:50.593Z,15.3
2018-10-17T10:16:49.979Z,15.3
2018-10-17T10:18:50.163Z,15.3
2018-10-17T10:20:50.335Z,15.4
2018-10-17T10:22:50.512Z,15.5
2018-10-17T10:24:51.404Z,15.6
2018-10-17T10:26:49.938Z,15.6
2018-10-17T10:28:50.078Z,15.7
2018-10-17T10:30:50.230Z,15.8
2018-10-17T10:32:50.446Z,15.9
2018-10-17T10:34:49.974Z,16.0
2018-10-17T10:36:50.389Z,16.0
2018-10-17T10:38:50.567Z,16.1
2018-10-17T10:40:50.766Z,16.2
2018-10-17T10:42:50.026Z,16.2
2018-10-17T10:44:50.675Z,16.3
2018-10-17T10:46:50.052Z,16.3
2018-10-17T10:48:50.331Z,16.4
2018-10-17T10:50:50.386Z,16.4
2018-10-17T10:52:50.915Z,16.5
2018-10-17T10:54:50.259Z,16.6
2018-10-17T10:56:50.709Z,16.6
2018-10-17T10:58:52.618Z,16.7
2018-10-17T11:00:49.895Z,16.8
2018-10-17T11:02:50.070Z,16.9
2018-10-17T11:04:51.484Z,17.0
2018-10-17T11:06:49.970Z,17.0
2018-10-17T11:08:50.199Z,17.0
2018-10-17T11:10:50.351Z,17.1
2018-10-17T11:12:50.484Z,17.1
2018-10-17T11:14:51.661Z,17.1
2018-10-17T11:16:50.427Z,17.2
2018-10-17T11:18:50.569Z,17.2
2018-10-17T11:20:50.693Z,17.3
2018-10-17T11:22:50.771Z,17.4
2018-10-17T11:24:49.929Z,17.4
2018-10-17T11:26:50.308Z,17.4
2018-10-17T11:28:50.419Z,17.5
2018-10-17T11:30:50.581Z,17.7
2018-10-17T11:32:50.837Z,17.7
2018-10-17T11:34:50.355Z,17.8
2018-10-17T11:36:50.657Z,17.8
2018-10-17T11:38:49.899Z,17.8
2018-10-17T11:40:50.413Z,17.9
2018-10-17T11:42:50.672Z,18.0
2018-10-17T11:44:50.890Z,18.0
2018-10-17T11:46:50.197Z,18.0
2018-10-17T11:48:50.417Z,18.1
2018-10-17T11:50:50.551Z,18.2
2018-10-17T11:52:50.680Z,18.2
2018-10-17T11:54:50.844Z,18.2
2018-10-17T11:56:50.192Z,18.4
2018-10-17T11:58:50.393Z,18.5
2018-10-17T12:00:50.536Z,18.5
2018-10-17T12:02:50.654Z,18.6
2018-10-17T12:04:52.192Z,18.6
2018-10-17T12:06:50.246Z,18.7
2018-10-17T12:08:50.442Z,18.8
2018-10-17T12:10:50.670Z,18.8
2018-10-17T12:12:49.897Z,18.8
2018-10-17T12:14:50.077Z,18.9
2018-10-17T12:16:50.577Z,19.0
2018-10-17T12:18:50.871Z,19.0
2018-10-17T12:20:50.430Z,19.1
2018-10-17T12:22:49.888Z,19.1
2018-10-17T12:24:50.001Z,19.2
2018-10-17T12:26:50.322Z,19.2
2018-10-17T12:28:51.488Z,19.2
2018-10-17T12:30:50.851Z,19.3
2018-10-17T12:32:50.085Z,19.3
2018-10-17T12:34:50.598Z,19.4
2018-10-17T12:36:50.115Z,19.5
2018-10-17T12:38:50.587Z,19.6
2018-10-17T12:40:51.341Z,19.6
2018-10-17T12:42:49.991Z,19.7
2018-10-17T12:44:50.489Z,19.7
2018-10-17T12:46:49.872Z,19.8
2018-10-17T12:48:50.092Z,19.8
2018-10-17T12:50:50.231Z,19.8
2018-10-17T12:52:52.102Z,19.9
2018-10-17T12:54:50.618Z,20.0
2018-10-17T12:56:50.054Z,20.1
2018-10-17T12:58:50.146Z,20.1
2018-10-17T13:00:50.282Z,20.1
2018-10-17T13:02:50.470Z,20.2
2018-10-17T13:04:49.941Z,20.3
2018-10-17T13:06:50.246Z,20.3
2018-10-17T13:08:50.404Z,20.3
2018-10-17T13:10:50.814Z,20.3
2018-10-17T13:12:50.006Z,20.4
2018-10-17T13:14:50.280Z,20.5
2018-10-17T13:16:50.689Z,20.5
2018-10-17T13:18:49.915Z,20.5
2018-10-17T13:20:50.117Z,20.6
2018-10-17T13:22:50.254Z,20.6
2018-10-17T13:24:50.478Z,20.6
2018-10-17T13:26:50.838Z,20.6
2018-10-17T13:28:50.022Z,20.7
2018-10-17T13:30:50.128Z,20.7
2018-10-17T13:32:50.270Z,20.8
2018-10-17T13:34:50.654Z,20.8
2018-10-17T13:36:49.920Z,20.8
2018-10-17T13:38:50.099Z,20.8
2018-10-17T13:40:50.293Z,20.8
2018-10-17T13:42:50.396Z,20.9
2018-10-17T13:44:50.542Z,20.9
2018-10-17T13:46:49.934Z,20.9
2018-10-17T13:48:50.407Z,21.0
2018-10-17T13:50:50.674Z,21.0
2018-10-17T13:52:50.741Z,21.0
2018-10-17T13:54:50.981Z,21.0
2018-10-17T13:56:50.749Z,21.0
2018-10-17T13:58:49.898Z,21.0
2018-10-17T14:00:50.059Z,21.0
2018-10-17T14:02:50.229Z,21.0
2018-10-17T14:04:50.669Z,21.0
2018-10-17T14:06:50.149Z,21.0
2018-10-17T14:08:50.309Z,21.1
2018-10-17T14:10:50.487Z,21.1
2018-10-17T14:12:50.601Z,21.1
2018-10-17T14:14:50.836Z,21.1
2018-10-17T14:16:50.155Z,21.0
2018-10-17T14:18:50.431Z,21.0
2018-10-17T14:20:50.564Z,21.0
2018-10-17T14:22:49.924Z,21.0
2018-10-17T14:24:50.052Z,21.0
2018-10-17T14:26:50.273Z,21.0
2018-10-17T14:28:50.442Z,21.0
2018-10-17T14:30:50.579Z,21.0
2018-10-17T14:32:49.961Z,21.0
2018-10-17T14:34:50.522Z,21.1
2018-10-17T14:36:50.882Z,21.0
2018-10-17T14:38:50.114Z,21.0
2018-10-17T14:40:51.224Z,21.0
2018-10-17T14:42:50.616Z,21.0
2018-10-17T14:44:50.797Z,21.0
2018-10-17T14:46:50.315Z,21.0
2018-10-17T14:48:50.522Z,21.0
2018-10-17T14:50:50.602Z,21.0
2018-10-17T14:52:49.912Z,21.0
2018-10-17T14:54:50.059Z,20.9
2018-10-17T14:56:50.448Z,20.9
2018-10-17T14:58:50.641Z,20.9
2018-10-17T15:00:50.813Z,20.9
2018-10-17T15:02:50.080Z,20.8
2018-10-17T15:04:50.501Z,20.8
2018-10-17T15:06:50.747Z,20.8
2018-10-17T15:08:49.917Z,20.8
2018-10-17T15:10:52.188Z,20.7
2018-10-17T15:12:49.903Z,20.7
2018-10-17T15:14:50.335Z,20.7
2018-10-17T15:16:51.460Z,20.6
2018-10-17T15:18:50.732Z,20.6
2018-10-17T15:20:49.963Z,20.6
2018-10-17T15:22:50.150Z,20.6
2018-10-17T15:24:51.113Z,20.5
2018-10-17T15:26:50.585Z,20.47
2018-10-17T15:28:50.695Z,20.33
2018-10-17T15:30:49.884Z,20.27
2018-10-17T15:32:50.107Z,20.14
2018-10-17T15:34:50.570Z,20.04
2018-10-17T15:36:50.271Z,19.96
2018-10-17T15:38:50.500Z,19.89
2018-10-17T15:40:50.707Z,19.89
2018-10-17T15:42:50.839Z,19.75
2018-10-17T15:44:50.026Z,19.68
2018-10-17T15:46:50.286Z,19.53
2018-10-17T15:48:50.435Z,19.41
2018-10-17T15:50:50.588Z,19.28
2018-10-17T15:52:51.093Z,19.03
2018-10-17T15:54:50.309Z,18.80
2018-10-17T15:56:50.589Z,18.48
2018-10-17T15:58:50.920Z,18.37
2018-10-17T16:00:50.578Z,18.05
2018-10-17T16:02:50.843Z,17.92
2018-10-17T16:04:50.517Z,17.63
2018-10-17T16:06:50.826Z,17.52
2018-10-17T16:08:50.110Z,17.36
2018-10-17T16:10:50.364Z,17.14
2018-10-17T16:12:50.576Z,16.91
2018-10-17T16:14:50.827Z,16.84
2018-10-17T16:16:50.475Z,16.64
2018-10-17T16:18:50.842Z,16.47
2018-10-17T16:20:49.982Z,16.35
2018-10-17T16:22:50.970Z,16.21
2018-10-17T16:24:50.436Z,16.13
2018-10-17T16:26:50.823Z,16.00
2018-10-17T16:28:50.046Z,15.85
2018-10-17T16:30:51.299Z,15.69
2018-10-17T16:32:50.695Z,15.61
2018-10-17T16:34:50.419Z,15.44
2018-10-17T16:36:49.909Z,15.37
2018-10-17T16:38:50.144Z,15.16
2018-10-17T16:40:50.972Z,15.02
2018-10-17T16:42:50.272Z,14.93
2018-10-17T16:44:50.486Z,14.75
2018-10-17T16:46:50.851Z,14.75
2018-10-17T16:48:50.056Z,14.61
2018-10-17T16:50:51.258Z,14.50
2018-10-17T16:52:50.679Z,14.35
2018-10-17T16:54:49.944Z,14.31
2018-10-17T16:56:50.316Z,14.22
2018-10-17T16:58:50.516Z,14.18
2018-10-17T17:00:50.689Z,14.08
2018-10-17T17:02:49.908Z,14.07
2018-10-17T17:04:50.366Z,13.98
2018-10-17T17:06:50.650Z,13.93
2018-10-17T17:08:49.887Z,13.83
2018-10-17T17:10:50.151Z,13.69
2018-10-17T17:12:50.290Z,13.64
2018-10-17T17:14:50.567Z,13.57
2018-10-17T17:16:49.977Z,13.44
2018-10-17T17:18:50.101Z,13.44
2018-10-17T17:20:50.248Z,13.26
2018-10-17T17:22:51.630Z,13.24
2018-10-17T17:24:50.109Z,13.21
2018-10-17T17:26:50.455Z,13.21
2018-10-17T17:28:50.670Z,13.07
2018-10-17T17:30:49.932Z,13.02
2018-10-17T17:32:50.145Z,12.93
2018-10-17T17:34:50.620Z,12.86
2018-10-17T17:36:49.867Z,12.77
2018-10-17T17:38:50.143Z,12.63
2018-10-17T17:40:50.147Z,12.59
2018-10-17T17:42:50.300Z,12.52
2018-10-17T17:44:50.555Z,12.49
2018-10-17T17:46:49.969Z,12.44
2018-10-17T17:48:50.107Z,12.44
2018-10-17T17:50:50.318Z,12.32
2018-10-17T17:52:50.506Z,12.28
2018-10-17T17:54:50.594Z,12.21
2018-10-17T17:56:49.816Z,12.16
2018-10-17T17:58:50.018Z,12.11
2018-10-17T18:00:50.120Z,12.04
2018-10-17T18:02:50.299Z,12.02
2018-10-17T18:04:49.882Z,11.94
2018-10-17T18:06:50.231Z,11.92
2018-10-17T18:08:50.367Z,11.87
2018-10-17T18:10:50.488Z,11.82
2018-10-17T18:12:50.562Z,11.79
2018-10-17T18:14:50.768Z,11.70
2018-10-17T18:16:50.244Z,11.70
2018-10-17T18:18:50.379Z,11.70
2018-10-17T18:20:50.506Z,11.80
2018-10-17T18:22:50.673Z,11.82
2018-10-17T18:24:50.872Z,11.82
2018-10-17T18:26:50.321Z,11.87
2018-10-17T18:28:50.448Z,11.87
2018-10-17T18:30:50.542Z,11.88
2018-10-17T18:32:50.806Z,11.84
2018-10-17T18:34:50.525Z,11.83
2018-10-17T18:36:49.941Z,11.80
2018-10-17T18:38:50.082Z,11.72
2018-10-17T18:40:50.194Z,11.65
2018-10-17T18:42:50.349Z,11.52
2018-10-17T18:44:50.549Z,11.47
2018-10-17T18:46:49.964Z,11.35
2018-10-17T18:48:50.134Z,11.31
2018-10-17T18:50:50.300Z,11.21
2018-10-17T18:52:50.392Z,11.18
2018-10-17T18:54:50.514Z,11.12
2018-10-17T18:56:49.933Z,11.07
2018-10-17T18:58:50.149Z,11.04
2018-10-17T19:00:50.331Z,10.95
2018-10-17T19:02:50.445Z,10.91
2018-10-17T19:04:49.877Z,10.88
2018-10-17T19:06:50.342Z,10.79
2018-10-17T19:08:50.482Z,10.79
2018-10-17T19:10:50.631Z,10.72
2018-10-17T19:12:50.745Z,10.69
2018-10-17T19:14:49.876Z,10.64
2018-10-17T19:16:50.226Z,10.62
2018-10-17T19:18:50.402Z,10.57
2018-10-17T19:20:50.589Z,10.59
2018-10-17T19:22:49.963Z,10.59
2018-10-17T19:24:51.002Z,10.53
2018-10-17T19:26:50.724Z,10.51
2018-10-17T19:28:49.877Z,10.42
2018-10-17T19:30:50.070Z,10.39
2018-10-17T19:32:50.220Z,10.33
2018-10-17T19:34:50.680Z,10.28
2018-10-17T19:36:50.009Z,10.25
2018-10-17T19:38:50.213Z,10.20
2018-10-17T19:40:50.427Z,10.19
2018-10-17T19:42:50.683Z,10.16
2018-10-17T19:44:49.875Z,10.08
2018-10-17T19:46:50.153Z,10.07
2018-10-17T19:48:50.397Z,10.09
2018-10-17T19:50:50.540Z,10.08
2018-10-17T19:52:50.843Z,10.00
2018-10-17T19:54:50.076Z,9.95
2018-10-17T19:56:50.383Z,9.96
2018-10-17T19:58:50.483Z,9.96
2018-10-17T20:00:50.746Z,9.95
2018-10-17T20:02:50.009Z,9.94
2018-10-17T20:04:50.468Z,9.89
2018-10-17T20:06:49.913Z,9.89
2018-10-17T20:08:50.113Z,9.86
2018-10-17T20:10:50.278Z,9.82
2018-10-17T20:12:50.460Z,9.72
2018-10-17T20:14:50.638Z,9.65
2018-10-17T20:16:50.000Z,9.63
2018-10-17T20:18:50.255Z,9.59
2018-10-17T20:20:50.447Z,9.56
2018-10-17T20:22:50.650Z,9.56
2018-10-17T20:24:50.957Z,9.52
2018-10-17T20:26:50.409Z,9.50
2018-10-17T20:28:50.661Z,9.51
2018-10-17T20:30:50.843Z,9.53
2018-10-17T20:32:49.890Z,9.53
2018-10-17T20:34:50.722Z,9.52
2018-10-17T20:36:50.221Z,9.43
2018-10-17T20:38:50.335Z,9.39
2018-10-17T20:40:50.576Z,9.34
2018-10-17T20:42:50.909Z,9.33
2018-10-17T20:44:50.095Z,9.32
2018-10-17T20:46:50.311Z,9.31
2018-10-17T20:48:50.543Z,9.30
2018-10-17T20:50:50.757Z,9.21
2018-10-17T20:52:49.981Z,9.19
2018-10-17T20:54:50.227Z,9.15
2018-10-17T20:56:50.608Z,9.15
2018-10-17T20:58:50.026Z,9.06
2018-10-17T21:00:50.337Z,9.03
2018-10-17T21:02:50.571Z,8.99
2018-10-17T21:04:50.223Z,8.97
2018-10-17T21:06:50.553Z,8.93
2018-10-17T21:08:50.643Z,8.92
2018-10-17T21:10:50.003Z,8.93
2018-10-17T21:12:50.118Z,8.90
2018-10-17T21:14:50.313Z,8.90
2018-10-17T21:16:50.698Z,8.82
2018-10-17T21:18:50.852Z,8.80
2018-10-17T21:20:50.300Z,8.74
2018-10-17T21:22:50.521Z,8.70
2018-10-17T21:24:50.838Z,8.65
2018-10-17T21:26:50.923Z,8.61
2018-10-17T21:28:50.278Z,8.61
2018-10-17T21:30:50.474Z,8.56
2018-10-17T21:32:50.639Z,8.54
2018-10-17T21:34:50.309Z,8.49
2018-10-17T21:36:50.736Z,8.46
2018-10-17T21:38:49.884Z,8.43
2018-10-17T21:40:50.051Z,8.41
2018-10-17T21:42:50.014Z,8.40
2018-10-17T21:44:49.933Z,8.40
2018-10-17T21:46:50.180Z,8.39
2018-10-17T21:48:50.266Z,8.36
2018-10-17T21:50:50.446Z,8.36
2018-10-17T21:52:50.603Z,8.29
2018-10-17T21:54:50.514Z,8.27
2018-10-17T21:56:49.798Z,8.26
2018-10-17T21:58:49.791Z,8.21
2018-10-17T22:00:49.796Z,8.16
2018-10-17T22:02:49.804Z,8.13
2018-10-17T22:04:50.323Z,8.06
2018-10-17T22:06:50.642Z,8.03
2018-10-17T22:08:49.879Z,8.03
2018-10-17T22:10:50.222Z,7.98
2018-10-17T22:12:50.236Z,7.96
2018-10-17T22:14:50.438Z,7.96
2018-10-17T22:16:50.793Z,7.93
2018-10-17T22:18:50.780Z,7.90
2018-10-17T22:20:49.978Z,7.89
2018-10-17T22:22:50.131Z,7.84
2018-10-17T22:24:50.229Z,7.83
2018-10-17T22:26:50.574Z,7.83
2018-10-17T22:28:50.696Z,7.80
2018-10-17T22:30:49.924Z,7.78
2018-10-17T22:32:50.099Z,7.72
2018-10-17T22:34:50.633Z,7.71
2018-10-17T22:36:49.960Z,7.69
2018-10-17T22:38:50.168Z,7.67
2018-10-17T22:40:50.407Z,7.63
2018-10-17T22:42:50.709Z,7.61
2018-10-17T22:44:50.830Z,7.59
2018-10-17T22:46:50.458Z,7.56
2018-10-17T22:48:50.701Z,7.56
2018-10-17T22:50:49.883Z,7.57
2018-10-17T22:52:50.063Z,7.56
2018-10-17T22:54:50.199Z,7.55
2018-10-17T22:56:50.530Z,7.54
2018-10-17T22:58:50.823Z,7.54
2018-10-17T23:00:50.054Z,7.51
2018-10-17T23:02:50.178Z,7.49
2018-10-17T23:04:50.603Z,7.52
2018-10-17T23:06:49.886Z,7.54
2018-10-17T23:08:50.057Z,7.52
2018-10-17T23:10:50.268Z,7.50
2018-10-17T23:12:50.432Z,7.45
2018-10-17T23:14:50.617Z,7.42
2018-10-17T23:16:49.973Z,7.42
2018-10-17T23:18:50.156Z,7.36
2018-10-17T23:20:50.415Z,7.30
2018-10-17T23:22:50.438Z,7.30
2018-10-17T23:24:50.457Z,7.27
2018-10-17T23:26:50.581Z,7.24
2018-10-17T23:28:50.529Z,7.22
2018-10-17T23:30:50.567Z,7.20
2018-10-17T23:32:50.508Z,7.14
2018-10-17T23:34:49.737Z,7.08
2018-10-17T23:36:49.990Z,7.07
2018-10-17T23:38:50.016Z,7.04
2018-10-17T23:40:50.002Z,7.04
2018-10-17T23:42:50.291Z,6.99
2018-10-17T23:44:50.307Z,6.99
2018-10-17T23:46:50.521Z,6.96
2018-10-17T23:48:50.538Z,6.91
2018-10-17T23:50:50.656Z,6.90
2018-10-17T23:52:49.925Z,6.88
2018-10-17T23:54:50.101Z,6.87
2018-10-17T23:56:50.462Z,6.84
2018-10-17T23:58:50.623Z,6.81
